Rankings de siempre
Mejores tiempos personales válidos de equipo a través de todos los eventos y temporadas. Cada equipo aparece una vez por división.
Busca por nombre y abre la página donde está clasificado este récord de división.
133,012 equipos clasificados
| Pos. | Pos. AG | Equipo | Nacionalidad | Categoría de edad | TiempoMejor tiempo | Diferencia |
|---|---|---|---|---|---|---|
| 127951 | #2929 | Carrie Hardy & Shane HardyCAN · X 50-54 · AG #2929 | CAN | X 50-54 | 1:55:52 | +66:39 |
| 127952 | -- | Lewis Read & Eleonore ReadGBR · X XU29 | GBR | X XU29 | 1:55:52 | +66:39 |
| 127953 | #44906 | Sebastien Llense & Ophélie BernardFRA · X 30-34 · AG #44906 | FRA | X 30-34 | 1:55:52 | +66:39 |
| 127954 | -- | Roberto Sannazzaro & Urszula SannazzaroPOL · X XU29 | POL | X XU29 | 1:55:52 | +66:39 |
| 127955 | -- | Mikael Söderlund & Ebba SödergrenSWE · X XU29 | SWE | X XU29 | 1:55:52 | +66:39 |
| 127956 | -- | Fiona Vaughan & Dave OconnellIRL · X XU29 | IRL | X XU29 | 1:55:52 | +66:39 |
| 127957 | #44907 | Karissa Shepard & Cyril WeatherspoonUSA · X 30-34 · AG #44907 | USA | X 30-34 | 1:55:52 | +66:39 |
| 127958 | #44908 | Bianca Azurin & Miggy AzurinPHI · X 30-34 · AG #44908 | PHI | X 30-34 | 1:55:53 | +66:40 |
| 127959 | #19510 | Paulina Gradoń & Radosław GradońPOL · X 25-29 · AG #19510 | POL | X 25-29 | 1:55:53 | +66:40 |
| 127960 | #44909 | Zaira Franco & Andre SotoMEX · X 30-34 · AG #44909 | MEX | X 30-34 | 1:55:53 | +66:40 |
| 127961 | -- | Gregory HENDRIKS & Debbie TANX XU29 | -- | X XU29 | 1:55:53 | +66:40 |
| 127962 | #8716 | Charmaine Chua & Ian ChanSIN · X 16-24 · AG #8716 | SIN | X 16-24 | 1:55:53 | +66:40 |
| 127963 | #4262 | Mohamed Hameed & Asiyath AhmedMDV · X 45-49 · AG #4262 | MDV | X 45-49 | 1:55:53 | +66:40 |
| 127964 | #8717 | Nick van der Steldt & Ruby VijverbergNED · X 16-24 · AG #8717 | NED | X 16-24 | 1:55:53 | +66:40 |
| 127965 | #17211 | Robin Combs & Simon Von De WallX 40-44 · AG #17211 | -- | X 40-44 | 1:55:54 | +66:41 |
| 127966 | #1303 | John Park & Charlotte HabenichtX 30-39 · AG #1303 | -- | X 30-39 | 1:55:54 | +66:41 |
| 127967 | #17212 | Abdul Rashid Valiya Valappil & Alya Umar Mohd AssawiX 40-44 · AG #17212 | -- | X 40-44 | 1:55:54 | +66:41 |
| 127968 | #17213 | Ryan Horta & Jeff GabelmannUSA · X 40-44 · AG #17213 | USA | X 40-44 | 1:55:55 | +66:42 |
| 127969 | #44910 | Pedro Flores & Laura PerezCRC · X 30-34 · AG #44910 | CRC | X 30-34 | 1:55:55 | +66:42 |
| 127970 | #44911 | Iván Cerezo & Paloma CerezoMEX · X 30-34 · AG #44911 | MEX | X 30-34 | 1:55:55 | +66:42 |
| 127971 | #44912 | Nolvin Ng & Erica GohSIN · X 30-34 · AG #44912 | SIN | X 30-34 | 1:55:55 | +66:42 |
| 127972 | #8718 | Daan van Langen & Floor FolkersNED · X 16-24 · AG #8718 | NED | X 16-24 | 1:55:55 | +66:42 |
| 127973 | #19511 | Helen Salinas & Fabian SalinasUSA · X 25-29 · AG #19511 | USA | X 25-29 | 1:55:56 | +66:43 |
| 127974 | #19512 | Mathilde Mauricio & Matthieu MauricioFRA · X 25-29 · AG #19512 | FRA | X 25-29 | 1:55:56 | +66:43 |
| 127975 | #19513 | Ashleigh Johnson & Nelson KrogAUS · X 25-29 · AG #19513 | AUS | X 25-29 | 1:55:56 | +66:43 |
Página 5,119 de 5,321